createdAt,value
2017-11-18T00:01:38.346Z,24.00
2017-11-18T00:04:06.091Z,18.90
2017-11-18T00:06:33.821Z,23.00
2017-11-18T00:09:01.582Z,19.63
2017-11-18T00:11:29.285Z,15.20
2017-11-18T00:13:57.024Z,19.67
2017-11-18T00:16:24.724Z,30.10
2017-11-18T00:18:52.409Z,19.57
2017-11-18T00:21:20.162Z,30.50
2017-11-18T00:23:47.884Z,14.50
2017-11-18T00:26:15.587Z,16.73
2017-11-18T00:28:43.308Z,19.73
2017-11-18T00:31:11.852Z,18.13
2017-11-18T00:33:39.582Z,18.90
2017-11-18T00:36:07.389Z,15.33
2017-11-18T00:38:35.141Z,15.83
2017-11-18T00:41:02.932Z,17.57
2017-11-18T00:43:30.658Z,21.90
2017-11-18T00:45:58.531Z,20.90
2017-11-18T00:48:26.239Z,15.40
2017-11-18T00:50:53.990Z,13.07
2017-11-18T00:53:21.702Z,16.90
2017-11-18T00:55:49.445Z,14.90
2017-11-18T00:58:17.123Z,19.27
2017-11-18T01:00:45.027Z,18.77
2017-11-18T01:03:12.717Z,19.20
2017-11-18T01:05:40.419Z,15.50
2017-11-18T01:08:08.144Z,18.20
2017-11-18T01:10:35.868Z,19.43
2017-11-18T01:13:03.609Z,16.07
2017-11-18T01:15:31.307Z,16.57
2017-11-18T01:17:59.010Z,17.67
2017-11-18T01:20:26.769Z,15.13
2017-11-18T01:22:54.479Z,17.77
2017-11-18T01:25:22.190Z,16.13
2017-11-18T01:27:49.932Z,17.30
2017-11-18T01:30:17.608Z,18.17
2017-11-18T01:32:45.314Z,17.80
2017-11-18T01:35:13.133Z,16.10
2017-11-18T01:37:40.830Z,17.43
2017-11-18T01:40:08.606Z,20.93
2017-11-18T01:42:36.325Z,19.10
2017-11-18T01:45:04.089Z,15.30
2017-11-18T01:47:31.814Z,21.40
2017-11-18T01:49:59.562Z,15.70
2017-11-18T01:52:27.274Z,16.60
2017-11-18T01:54:55.088Z,16.73
2017-11-18T01:57:22.915Z,23.50
2017-11-18T01:59:50.632Z,19.30
2017-11-18T02:02:30.131Z,17.43
2017-11-18T02:04:57.951Z,17.10
2017-11-18T02:07:25.654Z,18.47
2017-11-18T02:09:53.418Z,20.53
2017-11-18T02:12:21.116Z,15.67
2017-11-18T02:14:48.825Z,16.40
2017-11-18T02:17:16.605Z,17.20
2017-11-18T02:19:44.316Z,18.87
2017-11-18T02:22:12.733Z,16.93
2017-11-18T02:24:40.543Z,17.67
2017-11-18T02:27:08.365Z,23.00
2017-11-18T02:29:36.064Z,23.83
2017-11-18T02:32:03.942Z,17.40
2017-11-18T02:34:31.784Z,23.33
2017-11-18T02:36:59.528Z,18.40
2017-11-18T02:39:27.315Z,14.80
2017-11-18T02:41:55.262Z,17.90
2017-11-18T02:44:22.996Z,17.10
2017-11-18T02:46:50.768Z,19.10
2017-11-18T02:49:18.529Z,16.80
2017-11-18T02:51:46.419Z,17.60
2017-11-18T02:54:14.205Z,26.73
2017-11-18T02:56:41.993Z,23.30
2017-11-18T02:59:09.769Z,13.67
2017-11-18T03:01:37.549Z,15.60
2017-11-18T03:04:05.263Z,18.67
2017-11-18T03:06:33.014Z,22.10
2017-11-18T03:09:00.756Z,14.70
2017-11-18T03:11:28.495Z,15.60
2017-11-18T03:13:56.307Z,22.57
2017-11-18T03:16:24.064Z,17.80
2017-11-18T03:18:51.813Z,16.30
2017-11-18T03:21:19.580Z,18.43
2017-11-18T03:23:47.385Z,15.47
2017-11-18T03:26:15.066Z,18.27
2017-11-18T03:28:42.841Z,14.20
2017-11-18T03:31:10.560Z,16.43
2017-11-18T03:33:38.280Z,17.30
2017-11-18T03:36:06.043Z,14.03
2017-11-18T03:38:34.920Z,14.30
2017-11-18T03:41:02.626Z,15.03
2017-11-18T03:43:30.413Z,16.40
2017-11-18T03:45:58.163Z,15.00
2017-11-18T03:48:25.906Z,17.17
2017-11-18T03:50:53.860Z,20.20
2017-11-18T03:53:21.627Z,20.40
2017-11-18T03:55:49.371Z,22.53
2017-11-18T03:58:17.130Z,19.90
2017-11-18T04:00:50.438Z,14.90
2017-11-18T04:03:18.168Z,13.83
2017-11-18T04:05:46.123Z,15.53
2017-11-18T04:08:13.857Z,18.80
2017-11-18T04:10:41.670Z,15.17
2017-11-18T04:13:09.469Z,16.97
2017-11-18T04:15:37.168Z,17.43
2017-11-18T04:18:04.959Z,16.10
2017-11-18T04:20:32.669Z,14.73
2017-11-18T04:23:00.386Z,17.63
2017-11-18T04:25:28.117Z,17.23
2017-11-18T04:27:55.874Z,18.07
2017-11-18T04:30:23.606Z,16.80
2017-11-18T04:32:51.332Z,14.83
2017-11-18T04:35:19.059Z,15.90
2017-11-18T04:37:46.809Z,16.00
2017-11-18T04:40:14.582Z,16.43
2017-11-18T04:42:42.323Z,19.30
2017-11-18T04:45:10.290Z,15.60
2017-11-18T04:47:38.010Z,19.13
2017-11-18T04:50:05.837Z,19.53
2017-11-18T04:52:33.572Z,17.00
2017-11-18T04:55:01.336Z,16.80
2017-11-18T04:57:29.020Z,17.47
2017-11-18T04:59:56.721Z,15.30
2017-11-18T05:02:24.458Z,19.83
2017-11-18T05:04:52.152Z,21.20
2017-11-18T05:07:19.913Z,16.80
2017-11-18T05:09:47.706Z,15.20
2017-11-18T05:12:15.412Z,17.23
2017-11-18T05:14:43.339Z,18.10
2017-11-18T05:17:11.074Z,15.80
2017-11-18T05:19:38.754Z,17.33
2017-11-18T05:22:06.531Z,15.93
2017-11-18T05:24:34.223Z,14.80
2017-11-18T05:27:02.012Z,19.13
2017-11-18T05:29:29.720Z,18.33
2017-11-18T05:31:57.448Z,17.87
2017-11-18T05:34:25.258Z,12.27
2017-11-18T05:36:53.041Z,18.23
2017-11-18T05:39:20.798Z,20.07
2017-11-18T05:41:48.520Z,16.87
2017-11-18T05:44:16.321Z,16.20
2017-11-18T05:46:44.071Z,20.73
2017-11-18T05:49:11.788Z,22.70
2017-11-18T05:51:39.616Z,29.23
2017-11-18T05:54:07.357Z,26.20
2017-11-18T05:56:35.068Z,22.90
2017-11-18T05:59:03.352Z,22.90
2017-11-18T06:01:31.176Z,29.90
2017-11-18T06:03:58.918Z,28.33
2017-11-18T06:06:26.677Z,23.67
2017-11-18T06:08:54.390Z,31.00
2017-11-18T06:11:22.164Z,32.53
2017-11-18T06:13:50.054Z,24.73
2017-11-18T06:16:17.812Z,32.10
2017-11-18T06:18:45.596Z,21.20
2017-11-18T06:21:13.345Z,23.20
2017-11-18T06:23:41.053Z,18.40
2017-11-18T06:26:08.829Z,14.93
2017-11-18T06:28:36.502Z,16.33
2017-11-18T06:31:04.233Z,22.03
2017-11-18T06:33:31.999Z,21.13
2017-11-18T06:35:59.766Z,17.37
2017-11-18T06:38:27.531Z,18.07
2017-11-18T06:40:55.238Z,22.80
2017-11-18T06:43:22.998Z,19.90
2017-11-18T06:45:50.704Z,22.83
2017-11-18T06:48:18.579Z,25.40
2017-11-18T06:50:47.183Z,21.83
2017-11-18T06:53:14.876Z,23.37
2017-11-18T06:55:42.612Z,28.03
2017-11-18T06:58:10.353Z,26.57
2017-11-18T07:00:38.136Z,19.30
2017-11-18T07:03:06.000Z,24.00
2017-11-18T07:05:33.981Z,23.77
2017-11-18T07:08:01.688Z,22.00
2017-11-18T07:10:29.403Z,28.90
2017-11-18T07:12:57.142Z,25.70
2017-11-18T07:15:24.990Z,29.10
2017-11-18T07:17:52.758Z,41.00
2017-11-18T07:20:20.552Z,35.60
2017-11-18T07:22:49.970Z,33.27
2017-11-18T07:25:17.673Z,34.07
2017-11-18T07:27:45.410Z,37.90
2017-11-18T07:30:13.165Z,30.97
2017-11-18T07:32:40.912Z,23.37
2017-11-18T07:35:08.664Z,24.33
2017-11-18T07:37:36.561Z,25.37
2017-11-18T07:40:05.480Z,27.57
2017-11-18T07:42:33.312Z,19.07
2017-11-18T07:45:01.223Z,14.63
2017-11-18T07:47:28.966Z,19.70
2017-11-18T07:49:56.709Z,22.23
2017-11-18T07:52:24.488Z,20.80
2017-11-18T07:54:52.337Z,35.83
2017-11-18T07:57:20.252Z,22.73
2017-11-18T07:59:48.076Z,20.90
2017-11-18T08:02:15.812Z,19.90
2017-11-18T08:04:43.591Z,23.87
2017-11-18T08:07:11.411Z,26.23
2017-11-18T08:09:39.184Z,23.77
2017-11-18T08:12:07.956Z,39.03
2017-11-18T08:14:35.729Z,47.90
2017-11-18T08:17:03.451Z,34.10
2017-11-18T08:19:31.832Z,28.50
2017-11-18T08:21:59.555Z,24.23
2017-11-18T08:24:28.606Z,35.53
2017-11-18T08:26:57.298Z,43.30
2017-11-18T08:29:25.063Z,70.10
2017-11-18T08:31:53.983Z,62.33
2017-11-18T08:34:21.906Z,45.90
2017-11-18T08:36:49.681Z,39.70
2017-11-18T08:39:17.419Z,30.57
2017-11-18T08:41:45.212Z,36.07
2017-11-18T08:44:12.994Z,26.83
2017-11-18T08:46:40.809Z,30.30
2017-11-18T08:49:08.551Z,33.67
2017-11-18T08:51:36.242Z,32.43
2017-11-18T08:54:04.125Z,31.70
2017-11-18T08:56:31.927Z,34.83
2017-11-18T08:58:59.787Z,28.80
2017-11-18T09:01:27.525Z,30.67
2017-11-18T09:03:56.102Z,33.40
2017-11-18T09:06:23.910Z,32.40
2017-11-18T09:08:51.928Z,29.53
2017-11-18T09:11:19.769Z,32.97
2017-11-18T09:13:47.713Z,26.83
2017-11-18T09:16:15.559Z,31.63
2017-11-18T09:18:43.615Z,25.87
2017-11-18T09:21:11.411Z,30.80
2017-11-18T09:23:39.162Z,26.00
2017-11-18T09:26:06.986Z,30.17
2017-11-18T09:28:34.807Z,26.07
2017-11-18T09:31:02.552Z,29.97
2017-11-18T09:33:30.367Z,28.37
2017-11-18T09:35:58.240Z,30.87
2017-11-18T09:38:26.036Z,29.70
2017-11-18T09:40:53.772Z,34.43
2017-11-18T09:43:21.597Z,26.60
2017-11-18T09:45:49.344Z,25.77
2017-11-18T09:48:17.072Z,28.67
2017-11-18T09:50:44.809Z,25.43
2017-11-18T09:53:12.571Z,30.00
2017-11-18T09:55:40.319Z,27.00
2017-11-18T09:58:08.292Z,30.03
2017-11-18T10:00:36.128Z,32.17
2017-11-18T10:03:03.958Z,26.60
2017-11-18T10:05:31.758Z,20.03
2017-11-18T10:07:59.500Z,30.17
2017-11-18T10:10:27.296Z,25.80
2017-11-18T10:12:55.159Z,26.20
2017-11-18T10:15:22.970Z,24.27
2017-11-18T10:17:50.820Z,23.50
2017-11-18T10:20:18.674Z,22.00
2017-11-18T10:22:46.584Z,23.27
2017-11-18T10:25:14.351Z,26.60
2017-11-18T10:27:42.152Z,28.10
2017-11-18T10:30:10.066Z,32.40
2017-11-18T10:32:37.863Z,20.73
2017-11-18T10:35:05.699Z,23.87
2017-11-18T10:37:33.518Z,19.17
2017-11-18T10:40:01.301Z,24.93
2017-11-18T10:42:29.071Z,21.07
2017-11-18T10:44:57.987Z,21.83
2017-11-18T10:47:25.748Z,24.27
2017-11-18T10:49:55.416Z,20.70
2017-11-18T10:52:23.293Z,27.53
2017-11-18T10:54:51.039Z,24.70
2017-11-18T10:57:19.071Z,25.17
2017-11-18T10:59:46.769Z,23.73
2017-11-18T11:02:14.480Z,24.27
2017-11-18T11:04:42.287Z,20.17
2017-11-18T11:07:09.994Z,23.50
2017-11-18T11:09:37.760Z,21.37
2017-11-18T11:12:06.330Z,23.87
2017-11-18T11:14:34.045Z,24.47
2017-11-18T11:17:01.926Z,19.60
2017-11-18T11:19:29.797Z,21.70
2017-11-18T11:21:57.494Z,27.53
2017-11-18T11:24:26.302Z,19.27
2017-11-18T11:26:54.107Z,19.23
2017-11-18T11:29:21.909Z,23.07
2017-11-18T11:31:49.661Z,24.73
2017-11-18T11:34:17.414Z,24.10
2017-11-18T11:36:45.221Z,24.93
2017-11-18T11:39:12.982Z,18.23
2017-11-18T11:41:40.744Z,24.60
2017-11-18T11:44:09.391Z,21.57
2017-11-18T11:46:37.395Z,19.33
2017-11-18T11:49:05.151Z,21.90
2017-11-18T11:51:33.752Z,19.90
2017-11-18T11:54:01.560Z,26.20
2017-11-18T11:56:29.435Z,16.13
2017-11-18T11:58:58.173Z,20.90
2017-11-18T12:01:25.942Z,21.80
2017-11-18T12:03:53.722Z,18.40
2017-11-18T12:06:21.555Z,20.10
2017-11-18T12:08:49.307Z,18.53
2017-11-18T12:11:17.175Z,19.83
2017-11-18T12:13:44.921Z,18.23
2017-11-18T12:16:12.817Z,15.90
2017-11-18T12:18:40.627Z,21.20
2017-11-18T12:21:09.009Z,18.37
2017-11-18T12:23:36.845Z,17.17
2017-11-18T12:26:04.573Z,17.57
2017-11-18T12:28:32.334Z,23.23
2017-11-18T12:31:00.233Z,20.03
2017-11-18T12:33:28.078Z,16.40
2017-11-18T12:35:55.859Z,12.50
2017-11-18T12:38:23.781Z,15.30
2017-11-18T12:40:51.619Z,16.83
2017-11-18T12:43:19.383Z,19.30
2017-11-18T12:45:47.178Z,20.83
2017-11-18T12:48:14.985Z,15.03
2017-11-18T12:50:42.908Z,19.23
2017-11-18T12:53:11.289Z,22.33
2017-11-18T12:55:39.082Z,17.93
2017-11-18T12:58:06.822Z,13.30
2017-11-18T13:00:35.435Z,15.13
2017-11-18T13:03:04.019Z,19.20
2017-11-18T13:05:31.783Z,18.70
2017-11-18T13:07:59.568Z,16.53
2017-11-18T13:10:27.398Z,13.23
2017-11-18T13:12:55.942Z,21.00
2017-11-18T13:15:23.663Z,14.17
2017-11-18T13:17:52.995Z,18.43
2017-11-18T13:20:20.704Z,21.27
2017-11-18T13:22:49.391Z,14.60
2017-11-18T13:25:17.159Z,14.30
2017-11-18T13:27:44.991Z,19.60
2017-11-18T13:30:12.837Z,15.47
2017-11-18T13:32:40.736Z,17.87
2017-11-18T13:35:08.541Z,21.03
2017-11-18T13:37:36.361Z,17.80
2017-11-18T13:40:04.094Z,12.83
2017-11-18T13:42:31.845Z,18.23
2017-11-18T13:44:59.539Z,14.30
2017-11-18T13:47:27.238Z,14.40
2017-11-18T13:49:54.997Z,16.10
2017-11-18T13:52:22.709Z,18.83
2017-11-18T13:54:50.438Z,15.63
2017-11-18T13:57:18.146Z,18.13
2017-11-18T13:59:45.908Z,18.90
2017-11-18T14:02:13.764Z,18.27
2017-11-18T14:04:41.601Z,14.33
2017-11-18T14:07:09.368Z,12.50
2017-11-18T14:09:38.420Z,15.57
2017-11-18T14:12:06.183Z,24.13
2017-11-18T14:14:33.906Z,14.30
2017-11-18T14:17:01.767Z,14.40
2017-11-18T14:19:29.548Z,18.50
2017-11-18T14:21:57.363Z,18.70
2017-11-18T14:24:25.197Z,19.43
2017-11-18T14:26:53.013Z,16.47
2017-11-18T14:29:20.718Z,15.47
2017-11-18T14:31:48.493Z,17.90
2017-11-18T14:34:17.355Z,16.47
2017-11-18T14:36:45.185Z,34.43
2017-11-18T14:39:12.971Z,10.00
2017-11-18T14:41:40.789Z,17.30
2017-11-18T14:44:10.446Z,13.60
2017-11-18T14:46:38.207Z,11.97
2017-11-18T14:49:06.345Z,13.50
2017-11-18T14:51:34.060Z,11.40
2017-11-18T14:54:01.809Z,11.10
2017-11-18T14:56:29.608Z,22.30
2017-11-18T14:58:57.391Z,18.57
2017-11-18T15:01:25.166Z,16.53
2017-11-18T15:03:53.051Z,27.87
2017-11-18T15:06:20.887Z,9.83
2017-11-18T15:08:48.763Z,10.50
2017-11-18T15:11:16.573Z,12.10
2017-11-18T15:13:44.376Z,8.63
2017-11-18T15:16:18.954Z,10.70
2017-11-18T15:18:56.170Z,7.53
2017-11-18T15:21:27.596Z,8.97
2017-11-18T15:24:00.785Z,7.00
2017-11-18T15:26:29.430Z,6.27
2017-11-18T15:29:11.628Z,11.67
2017-11-18T15:35:10.725Z,25.20
2017-11-18T15:37:43.387Z,19.50
2017-11-18T15:40:11.232Z,44.63
2017-11-18T15:42:39.152Z,219.70
2017-11-18T15:45:09.402Z,138.60
2017-11-18T15:47:42.746Z,34.20
2017-11-18T15:50:16.175Z,16.50
2017-11-18T15:52:49.420Z,12.23
2017-11-18T15:55:20.270Z,12.47
2017-11-18T15:57:48.165Z,12.70
2017-11-18T16:00:16.084Z,46.43
2017-11-18T16:05:45.171Z,28.70
2017-11-18T16:08:13.979Z,12.80
2017-11-18T16:10:41.745Z,7.73
2017-11-18T16:13:09.531Z,6.20
2017-11-18T16:15:37.345Z,4.00
2017-11-18T16:18:05.302Z,6.67
2017-11-18T16:20:33.166Z,4.80
2017-11-18T16:23:00.944Z,4.27
2017-11-18T16:25:28.776Z,5.17
2017-11-18T16:27:56.629Z,6.97
2017-11-18T16:30:24.468Z,4.73
2017-11-18T16:32:52.311Z,5.93
2017-11-18T16:35:20.574Z,10.13
2017-11-18T16:37:48.444Z,4.80
2017-11-18T16:40:16.297Z,5.80
2017-11-18T16:42:44.950Z,5.50
2017-11-18T16:45:12.788Z,5.90
2017-11-18T16:47:40.661Z,6.07
2017-11-18T16:50:08.524Z,6.20
2017-11-18T16:52:36.340Z,3.80
2017-11-18T16:55:04.089Z,7.17
2017-11-18T16:57:31.955Z,8.53
2017-11-18T16:59:59.844Z,6.60
2017-11-18T17:02:27.703Z,3.23
2017-11-18T17:04:55.796Z,3.57
2017-11-18T17:07:23.528Z,7.30
2017-11-18T17:09:51.376Z,4.20
2017-11-18T17:12:19.224Z,4.83
2017-11-18T17:14:46.997Z,3.80
2017-11-18T17:17:14.824Z,5.60
2017-11-18T17:19:42.656Z,10.37
2017-11-18T17:22:10.458Z,7.73
2017-11-18T17:24:38.361Z,6.90
2017-11-18T17:27:06.210Z,3.53
2017-11-18T17:29:34.517Z,4.27
2017-11-18T17:32:02.334Z,7.50
2017-11-18T17:34:30.189Z,3.83
2017-11-18T17:36:58.015Z,5.03
2017-11-18T17:39:25.971Z,3.90
2017-11-18T17:41:53.920Z,6.50
2017-11-18T17:44:21.660Z,9.63
2017-11-18T17:46:49.505Z,4.73
2017-11-18T17:49:17.353Z,5.90
2017-11-18T17:51:45.582Z,4.53
2017-11-18T17:54:13.468Z,6.63
2017-11-18T17:56:41.331Z,4.70
2017-11-18T17:59:09.126Z,4.40
2017-11-18T18:01:36.868Z,6.80
2017-11-18T18:04:04.644Z,7.93
2017-11-18T18:06:32.398Z,2.53
2017-11-18T18:09:00.270Z,6.27
2017-11-18T18:11:28.996Z,4.17
2017-11-18T18:13:56.896Z,5.87
2017-11-18T18:16:24.710Z,4.10
2017-11-18T18:18:52.425Z,4.17
2017-11-18T18:21:20.202Z,6.87
2017-11-18T18:23:47.910Z,2.40
2017-11-18T18:26:15.661Z,2.73
2017-11-18T18:28:43.473Z,4.30
2017-11-18T18:31:12.538Z,3.23
2017-11-18T18:33:40.289Z,9.77
2017-11-18T18:36:07.991Z,5.30
2017-11-18T18:38:36.171Z,4.50
2017-11-18T18:41:04.016Z,9.17
2017-11-18T18:43:31.965Z,5.40
2017-11-18T18:46:00.578Z,7.13
2017-11-18T18:48:28.451Z,5.93
2017-11-18T18:50:56.264Z,4.33
2017-11-18T18:53:24.922Z,8.53
2017-11-18T18:55:52.737Z,6.30
2017-11-18T18:58:20.548Z,4.17
2017-11-18T19:00:48.381Z,5.47
2017-11-18T19:03:16.253Z,4.03
2017-11-18T19:05:44.471Z,4.13
2017-11-18T19:08:12.332Z,4.73
2017-11-18T19:10:40.197Z,7.23
2017-11-18T19:13:08.102Z,10.40
2017-11-18T19:15:36.961Z,6.23
2017-11-18T19:18:05.025Z,7.00
2017-11-18T19:20:32.929Z,8.30
2017-11-18T19:23:00.687Z,7.57
2017-11-18T19:25:28.497Z,12.17
2017-11-18T19:27:56.380Z,7.00
2017-11-18T19:30:24.977Z,8.33
2017-11-18T19:32:52.932Z,6.30
2017-11-18T19:35:21.112Z,7.17
2017-11-18T19:37:48.976Z,5.10
2017-11-18T19:40:16.789Z,6.43
2017-11-18T19:42:44.746Z,6.23
2017-11-18T19:45:12.794Z,6.20
2017-11-18T19:47:40.754Z,4.90
2017-11-18T19:50:08.676Z,4.93
2017-11-18T19:52:36.440Z,4.93
2017-11-18T19:55:04.384Z,7.93
2017-11-18T19:57:32.345Z,9.00
2017-11-18T20:00:00.421Z,5.77
2017-11-18T20:02:28.292Z,9.60
2017-11-18T20:04:56.089Z,7.80
2017-11-18T20:07:24.021Z,7.30
2017-11-18T20:09:51.878Z,8.33
2017-11-18T20:12:19.993Z,10.93
2017-11-18T20:14:48.232Z,5.40
2017-11-18T20:17:17.618Z,6.27
2017-11-18T20:19:45.711Z,7.27
2017-11-18T20:22:13.691Z,7.53
2017-11-18T20:24:41.981Z,6.57
2017-11-18T20:27:09.883Z,5.03
2017-11-18T20:29:37.909Z,7.80
2017-11-18T20:32:05.910Z,7.50
2017-11-18T20:34:34.369Z,6.27
2017-11-18T20:37:02.142Z,7.73
2017-11-18T20:39:29.914Z,5.00
2017-11-18T20:41:57.662Z,10.87
2017-11-18T20:44:26.325Z,4.43
2017-11-18T20:46:54.147Z,5.20
2017-11-18T20:49:23.153Z,7.70
2017-11-18T20:51:50.967Z,5.40
2017-11-18T20:54:18.805Z,7.27
2017-11-18T20:56:46.634Z,5.70
2017-11-18T20:59:15.641Z,7.67
2017-11-18T21:01:43.422Z,9.83
2017-11-18T21:04:11.161Z,5.67
2017-11-18T21:06:38.940Z,5.23
2017-11-18T21:09:06.709Z,6.87
2017-11-18T21:11:34.589Z,15.57
2017-11-18T21:14:03.341Z,11.40
2017-11-18T21:16:31.077Z,8.67
2017-11-18T21:19:00.171Z,4.30
2017-11-18T21:21:27.925Z,7.43
2017-11-18T21:23:55.708Z,5.43
2017-11-18T21:26:23.551Z,5.40
2017-11-18T21:28:51.230Z,7.23
2017-11-18T21:31:18.974Z,6.87
2017-11-18T21:33:46.719Z,9.30
2017-11-18T21:36:15.108Z,5.23
2017-11-18T21:38:42.855Z,5.03
2017-11-18T21:41:10.606Z,8.87
2017-11-18T21:43:38.321Z,10.50
2017-11-18T21:46:06.105Z,32.60
2017-11-18T21:48:33.913Z,16.03
2017-11-18T21:51:02.578Z,13.60
2017-11-18T21:53:30.280Z,9.03
2017-11-18T21:55:58.155Z,8.83
2017-11-18T21:58:25.826Z,9.87
2017-11-18T22:00:53.586Z,12.87
2017-11-18T22:03:21.285Z,18.80
2017-11-18T22:05:48.993Z,8.63
2017-11-18T22:08:16.757Z,12.80
2017-11-18T22:10:44.510Z,7.80
2017-11-18T22:13:12.199Z,6.87
2017-11-18T22:15:39.935Z,10.20
2017-11-18T22:18:07.602Z,9.40
2017-11-18T22:20:35.369Z,6.67
2017-11-18T22:23:03.184Z,5.40
2017-11-18T22:25:30.918Z,7.17
2017-11-18T22:27:58.709Z,10.10
2017-11-18T22:30:26.460Z,10.77
2017-11-18T22:32:54.267Z,6.43
2017-11-18T22:35:22.069Z,7.77
2017-11-18T22:37:49.767Z,8.17
2017-11-18T22:40:17.523Z,10.27
2017-11-18T22:42:45.238Z,7.03
2017-11-18T22:45:12.970Z,12.23
2017-11-18T22:47:40.807Z,10.83
2017-11-18T22:50:08.516Z,7.60
2017-11-18T22:52:36.301Z,10.90
2017-11-18T22:55:04.101Z,14.30
2017-11-18T22:57:32.084Z,11.80
2017-11-18T22:59:59.903Z,16.47
2017-11-18T23:02:27.745Z,15.37
2017-11-18T23:04:55.425Z,13.50
2017-11-18T23:07:23.160Z,11.40
2017-11-18T23:09:50.897Z,16.37
2017-11-18T23:12:18.654Z,12.70
2017-11-18T23:14:46.405Z,13.20
2017-11-18T23:17:14.096Z,13.20
2017-11-18T23:19:41.852Z,15.47
2017-11-18T23:22:09.549Z,14.90
2017-11-18T23:24:37.305Z,16.27
2017-11-18T23:27:05.009Z,13.80
2017-11-18T23:29:32.712Z,10.60
2017-11-18T23:32:00.471Z,15.67
2017-11-18T23:34:28.202Z,17.20
2017-11-18T23:36:55.930Z,15.93
2017-11-18T23:39:23.632Z,19.90
2017-11-18T23:41:51.377Z,26.73
2017-11-18T23:44:19.110Z,16.53
2017-11-18T23:46:46.805Z,15.40
2017-11-18T23:49:14.554Z,15.83
2017-11-18T23:51:42.251Z,17.90
2017-11-18T23:54:09.977Z,21.73
2017-11-18T23:56:37.770Z,17.20
2017-11-18T23:59:05.467Z,14.67
